sensor_id;sensor_type;location;lat;lon;timestamp;pressure;altitude;pressure_sealevel;temperature;humidity
72909;BME280;61051;62.624;17.950;2023-08-06T00:02:01;101212.75;;;14.19;96.58
72909;BME280;61051;62.624;17.950;2023-08-06T00:04:30;101213.75;;;14.31;96.86
72909;BME280;61051;62.624;17.950;2023-08-06T00:06:58;101215.18;;;14.18;95.79
72909;BME280;61051;62.624;17.950;2023-08-06T00:09:26;101215.42;;;14.18;96.02
72909;BME280;61051;62.624;17.950;2023-08-06T00:11:54;101213.34;;;14.29;96.47
72909;BME280;61051;62.624;17.950;2023-08-06T00:14:23;101212.89;;;14.24;96.83
72909;BME280;61051;62.624;17.950;2023-08-06T00:16:51;101212.56;;;14.24;97.29
72909;BME280;61051;62.624;17.950;2023-08-06T00:19:21;101212.91;;;14.19;97.44
72909;BME280;61051;62.624;17.950;2023-08-06T00:21:50;101212.58;;;14.08;97.78
72909;BME280;61051;62.624;17.950;2023-08-06T00:24:19;101211.70;;;14.17;99.06
72909;BME280;61051;62.624;17.950;2023-08-06T00:26:47;101209.73;;;14.28;99.01
72909;BME280;61051;62.624;17.950;2023-08-06T00:29:15;101212.85;;;14.36;97.99
72909;BME280;61051;62.624;17.950;2023-08-06T00:31:43;101214.23;;;14.39;98.68
72909;BME280;61051;62.624;17.950;2023-08-06T00:34:11;101215.71;;;14.42;98.68
72909;BME280;61051;62.624;17.950;2023-08-06T00:36:39;101220.33;;;14.50;98.32
72909;BME280;61051;62.624;17.950;2023-08-06T00:39:07;101223.19;;;14.38;98.21
72909;BME280;61051;62.624;17.950;2023-08-06T00:41:35;101223.92;;;14.47;98.45
72909;BME280;61051;62.624;17.950;2023-08-06T00:44:04;101226.37;;;14.45;98.36
72909;BME280;61051;62.624;17.950;2023-08-06T00:46:32;101220.54;;;14.46;98.21
72909;BME280;61051;62.624;17.950;2023-08-06T00:49:02;101218.50;;;14.44;97.54
72909;BME280;61051;62.624;17.950;2023-08-06T00:51:30;101217.76;;;14.47;97.97
72909;BME280;61051;62.624;17.950;2023-08-06T00:53:58;101218.65;;;14.44;97.28
72909;BME280;61051;62.624;17.950;2023-08-06T00:56:26;101214.66;;;14.38;97.56
72909;BME280;61051;62.624;17.950;2023-08-06T00:58:56;101213.76;;;14.41;97.19
72909;BME280;61051;62.624;17.950;2023-08-06T01:01:24;101212.66;;;14.45;97.65
72909;BME280;61051;62.624;17.950;2023-08-06T01:03:54;101213.59;;;14.39;98.80
72909;BME280;61051;62.624;17.950;2023-08-06T01:06:32;101213.01;;;14.41;98.57
72909;BME280;61051;62.624;17.950;2023-08-06T01:09:09;101210.63;;;14.26;98.94
72909;BME280;61051;62.624;17.950;2023-08-06T01:11:47;101213.58;;;14.27;99.31
72909;BME280;61051;62.624;17.950;2023-08-06T01:14:26;101215.92;;;14.22;99.70
72909;BME280;61051;62.624;17.950;2023-08-06T01:16:58;101214.70;;;14.27;99.85
72909;BME280;61051;62.624;17.950;2023-08-06T01:19:26;101213.83;;;14.13;98.94
72909;BME280;61051;62.624;17.950;2023-08-06T01:21:55;101216.75;;;14.10;99.23
72909;BME280;61051;62.624;17.950;2023-08-06T01:24:22;101212.50;;;14.13;97.82
72909;BME280;61051;62.624;17.950;2023-08-06T01:26:57;101210.83;;;13.94;96.97
72909;BME280;61051;62.624;17.950;2023-08-06T01:29:34;101214.65;;;13.85;99.72
72909;BME280;61051;62.624;17.950;2023-08-06T01:32:03;101221.83;;;13.90;100.00
72909;BME280;61051;62.624;17.950;2023-08-06T01:34:34;101224.04;;;13.81;99.91
72909;BME280;61051;62.624;17.950;2023-08-06T01:37:03;101224.57;;;13.85;100.00
72909;BME280;61051;62.624;17.950;2023-08-06T01:39:33;101220.22;;;13.75;100.00
72909;BME280;61051;62.624;17.950;2023-08-06T01:42:01;101220.93;;;13.73;99.27
72909;BME280;61051;62.624;17.950;2023-08-06T01:44:29;101221.51;;;13.61;99.73
72909;BME280;61051;62.624;17.950;2023-08-06T01:46:57;101220.43;;;13.64;99.75
72909;BME280;61051;62.624;17.950;2023-08-06T01:49:26;101222.38;;;13.56;99.83
72909;BME280;61051;62.624;17.950;2023-08-06T01:51:54;101223.02;;;13.52;100.00
72909;BME280;61051;62.624;17.950;2023-08-06T01:54:23;101221.87;;;13.48;100.00
72909;BME280;61051;62.624;17.950;2023-08-06T01:56:53;101221.65;;;13.46;100.00
72909;BME280;61051;62.624;17.950;2023-08-06T01:59:22;101223.20;;;13.35;100.00
72909;BME280;61051;62.624;17.950;2023-08-06T02:01:50;101222.79;;;13.43;99.51
72909;BME280;61051;62.624;17.950;2023-08-06T02:04:18;101222.08;;;13.25;100.00
72909;BME280;61051;62.624;17.950;2023-08-06T02:06:47;101221.67;;;13.34;100.00
72909;BME280;61051;62.624;17.950;2023-08-06T02:09:15;101227.12;;;13.31;100.00
72909;BME280;61051;62.624;17.950;2023-08-06T02:11:43;101229.17;;;13.47;100.00
72909;BME280;61051;62.624;17.950;2023-08-06T02:14:12;101229.59;;;13.54;100.00
72909;BME280;61051;62.624;17.950;2023-08-06T02:16:40;101230.94;;;13.42;100.00
72909;BME280;61051;62.624;17.950;2023-08-06T02:19:08;101236.19;;;13.43;100.00
72909;BME280;61051;62.624;17.950;2023-08-06T02:21:36;101238.98;;;13.47;100.00
72909;BME280;61051;62.624;17.950;2023-08-06T02:24:04;101242.30;;;13.53;100.00
72909;BME280;61051;62.624;17.950;2023-08-06T02:26:32;101247.00;;;13.61;100.00
72909;BME280;61051;62.624;17.950;2023-08-06T02:29:01;101249.76;;;13.63;100.00
72909;BME280;61051;62.624;17.950;2023-08-06T02:31:29;101253.17;;;13.54;100.00
72909;BME280;61051;62.624;17.950;2023-08-06T02:33:57;101251.57;;;13.66;100.00
72909;BME280;61051;62.624;17.950;2023-08-06T02:36:25;101255.59;;;13.59;100.00
72909;BME280;61051;62.624;17.950;2023-08-06T02:38:54;101253.98;;;13.58;100.00
72909;BME280;61051;62.624;17.950;2023-08-06T02:41:23;101254.14;;;13.56;100.00
72909;BME280;61051;62.624;17.950;2023-08-06T02:43:53;101255.78;;;13.59;100.00
72909;BME280;61051;62.624;17.950;2023-08-06T02:46:21;101254.01;;;13.47;100.00
72909;BME280;61051;62.624;17.950;2023-08-06T02:48:49;101250.88;;;13.57;100.00
72909;BME280;61051;62.624;17.950;2023-08-06T02:51:17;101250.29;;;13.56;99.78
72909;BME280;61051;62.624;17.950;2023-08-06T02:53:47;101254.11;;;13.59;100.00
72909;BME280;61051;62.624;17.950;2023-08-06T02:56:15;101260.50;;;13.56;100.00
72909;BME280;61051;62.624;17.950;2023-08-06T02:58:43;101264.45;;;13.58;100.00
72909;BME280;61051;62.624;17.950;2023-08-06T03:01:12;101269.74;;;13.66;100.00
72909;BME280;61051;62.624;17.950;2023-08-06T03:03:40;101272.03;;;13.60;99.94
72909;BME280;61051;62.624;17.950;2023-08-06T03:06:08;101275.05;;;13.68;99.80
72909;BME280;61051;62.624;17.950;2023-08-06T03:08:36;101278.40;;;13.70;99.55
72909;BME280;61051;62.624;17.950;2023-08-06T03:11:04;101280.38;;;13.63;99.27
72909;BME280;61051;62.624;17.950;2023-08-06T03:13:32;101282.86;;;13.77;99.62
72909;BME280;61051;62.624;17.950;2023-08-06T03:16:00;101283.55;;;13.86;99.49
72909;BME280;61051;62.624;17.950;2023-08-06T03:18:29;101285.55;;;13.97;99.82
72909;BME280;61051;62.624;17.950;2023-08-06T03:20:57;101283.74;;;13.92;99.69
72909;BME280;61051;62.624;17.950;2023-08-06T03:23:25;101277.66;;;14.07;99.29
72909;BME280;61051;62.624;17.950;2023-08-06T03:25:54;101274.50;;;14.04;99.42
72909;BME280;61051;62.624;17.950;2023-08-06T03:28:23;101275.71;;;13.93;99.50
72909;BME280;61051;62.624;17.950;2023-08-06T03:30:59;101277.20;;;13.92;99.46
72909;BME280;61051;62.624;17.950;2023-08-06T03:33:28;101278.26;;;13.92;99.97
72909;BME280;61051;62.624;17.950;2023-08-06T03:35:56;101277.82;;;14.02;100.00
72909;BME280;61051;62.624;17.950;2023-08-06T03:38:24;101279.73;;;13.91;100.00
72909;BME280;61051;62.624;17.950;2023-08-06T03:40:53;101281.59;;;14.05;100.00
72909;BME280;61051;62.624;17.950;2023-08-06T03:43:22;101285.77;;;14.19;100.00
72909;BME280;61051;62.624;17.950;2023-08-06T03:45:50;101284.85;;;14.22;100.00
72909;BME280;61051;62.624;17.950;2023-08-06T03:48:18;101280.49;;;14.10;99.00
72909;BME280;61051;62.624;17.950;2023-08-06T03:50:47;101283.27;;;14.06;98.92
72909;BME280;61051;62.624;17.950;2023-08-06T03:53:15;101283.84;;;14.19;99.79
72909;BME280;61051;62.624;17.950;2023-08-06T03:55:43;101283.68;;;14.24;99.71
72909;BME280;61051;62.624;17.950;2023-08-06T03:58:11;101282.44;;;14.15;98.58
72909;BME280;61051;62.624;17.950;2023-08-06T04:03:36;101279.94;;;14.04;99.98
72909;BME280;61051;62.624;17.950;2023-08-06T04:06:05;101275.04;;;14.03;99.78
72909;BME280;61051;62.624;17.950;2023-08-06T04:08:34;101271.96;;;14.02;99.78
72909;BME280;61051;62.624;17.950;2023-08-06T04:11:03;101274.23;;;14.02;99.36
72909;BME280;61051;62.624;17.950;2023-08-06T04:13:31;101273.60;;;14.01;99.38
72909;BME280;61051;62.624;17.950;2023-08-06T04:16:01;101272.04;;;14.12;100.00
72909;BME280;61051;62.624;17.950;2023-08-06T04:18:29;101275.19;;;14.16;98.92
72909;BME280;61051;62.624;17.950;2023-08-06T04:20:57;101274.17;;;14.31;99.72
72909;BME280;61051;62.624;17.950;2023-08-06T04:23:25;101279.85;;;14.41;98.89
72909;BME280;61051;62.624;17.950;2023-08-06T04:25:56;101284.64;;;14.55;99.54
72909;BME280;61051;62.624;17.950;2023-08-06T04:28:25;101284.87;;;14.71;99.14
72909;BME280;61051;62.624;17.950;2023-08-06T04:30:53;101288.80;;;14.72;98.05
72909;BME280;61051;62.624;17.950;2023-08-06T04:33:21;101290.64;;;14.92;96.92
72909;BME280;61051;62.624;17.950;2023-08-06T04:35:54;101292.68;;;15.07;96.54
72909;BME280;61051;62.624;17.950;2023-08-06T04:38:24;101292.57;;;15.16;95.72
72909;BME280;61051;62.624;17.950;2023-08-06T04:40:53;101297.70;;;15.28;95.10
72909;BME280;61051;62.624;17.950;2023-08-06T04:43:21;101298.12;;;15.34;94.60
72909;BME280;61051;62.624;17.950;2023-08-06T04:45:50;101301.01;;;15.45;93.48
72909;BME280;61051;62.624;17.950;2023-08-06T04:48:19;101303.64;;;15.57;93.45
72909;BME280;61051;62.624;17.950;2023-08-06T04:50:49;101300.28;;;15.73;92.68
72909;BME280;61051;62.624;17.950;2023-08-06T04:53:18;101298.71;;;15.78;93.19
72909;BME280;61051;62.624;17.950;2023-08-06T04:55:47;101294.62;;;15.83;92.71
72909;BME280;61051;62.624;17.950;2023-08-06T04:58:16;101299.50;;;15.97;92.02
72909;BME280;61051;62.624;17.950;2023-08-06T05:00:45;101302.48;;;16.22;91.31
72909;BME280;61051;62.624;17.950;2023-08-06T05:03:13;101303.74;;;16.28;90.76
72909;BME280;61051;62.624;17.950;2023-08-06T05:05:41;101308.86;;;16.35;90.10
72909;BME280;61051;62.624;17.950;2023-08-06T05:08:14;101313.08;;;16.46;90.05
72909;BME280;61051;62.624;17.950;2023-08-06T05:10:43;101314.39;;;16.50;89.75
72909;BME280;61051;62.624;17.950;2023-08-06T05:13:13;101307.10;;;16.47;90.18
72909;BME280;61051;62.624;17.950;2023-08-06T05:15:41;101303.37;;;16.48;91.37
72909;BME280;61051;62.624;17.950;2023-08-06T05:18:09;101300.61;;;16.40;90.60
72909;BME280;61051;62.624;17.950;2023-08-06T05:20:37;101302.76;;;16.37;90.80
72909;BME280;61051;62.624;17.950;2023-08-06T05:23:07;101301.80;;;16.36;91.90
72909;BME280;61051;62.624;17.950;2023-08-06T05:25:35;101304.13;;;16.10;92.95
72909;BME280;61051;62.624;17.950;2023-08-06T05:28:03;101308.95;;;16.25;93.17
72909;BME280;61051;62.624;17.950;2023-08-06T05:30:33;101311.69;;;16.33;93.97
72909;BME280;61051;62.624;17.950;2023-08-06T05:33:01;101313.87;;;16.41;93.21
72909;BME280;61051;62.624;17.950;2023-08-06T05:35:29;101319.21;;;16.30;93.15
72909;BME280;61051;62.624;17.950;2023-08-06T05:37:57;101324.79;;;16.18;93.77
72909;BME280;61051;62.624;17.950;2023-08-06T05:40:25;101327.76;;;16.26;94.31
72909;BME280;61051;62.624;17.950;2023-08-06T05:42:54;101327.55;;;16.24;94.72
72909;BME280;61051;62.624;17.950;2023-08-06T05:45:23;101329.51;;;16.30;94.73
72909;BME280;61051;62.624;17.950;2023-08-06T05:47:51;101331.71;;;16.28;94.53
72909;BME280;61051;62.624;17.950;2023-08-06T05:50:19;101329.95;;;16.47;93.39
72909;BME280;61051;62.624;17.950;2023-08-06T05:52:47;101325.57;;;16.68;92.60
72909;BME280;61051;62.624;17.950;2023-08-06T05:55:16;101325.01;;;16.68;91.32
72909;BME280;61051;62.624;17.950;2023-08-06T05:57:45;101319.18;;;16.79;91.14
72909;BME280;61051;62.624;17.950;2023-08-06T06:00:14;101322.03;;;16.88;90.60
72909;BME280;61051;62.624;17.950;2023-08-06T06:02:42;101326.23;;;16.97;90.10
72909;BME280;61051;62.624;17.950;2023-08-06T06:05:11;101329.65;;;17.26;89.37
72909;BME280;61051;62.624;17.950;2023-08-06T06:07:39;101328.10;;;17.30;88.37
72909;BME280;61051;62.624;17.950;2023-08-06T06:10:08;101323.27;;;17.15;89.63
72909;BME280;61051;62.624;17.950;2023-08-06T06:12:38;101324.50;;;17.29;89.20
72909;BME280;61051;62.624;17.950;2023-08-06T06:15:07;101323.84;;;17.16;89.49
72909;BME280;61051;62.624;17.950;2023-08-06T06:17:37;101322.84;;;17.41;88.85
72909;BME280;61051;62.624;17.950;2023-08-06T06:20:06;101320.59;;;17.64;88.12
72909;BME280;61051;62.624;17.950;2023-08-06T06:22:34;101318.19;;;17.85;86.42
72909;BME280;61051;62.624;17.950;2023-08-06T06:25:03;101318.08;;;17.90;85.93
72909;BME280;61051;62.624;17.950;2023-08-06T06:27:32;101318.45;;;18.17;85.54
72909;BME280;61051;62.624;17.950;2023-08-06T06:30:00;101311.19;;;18.26;83.64
72909;BME280;61051;62.624;17.950;2023-08-06T06:32:29;101314.02;;;18.27;84.85
72909;BME280;61051;62.624;17.950;2023-08-06T06:34:58;101314.97;;;18.36;83.92
72909;BME280;61051;62.624;17.950;2023-08-06T06:37:26;101314.10;;;18.41;83.59
72909;BME280;61051;62.624;17.950;2023-08-06T06:39:54;101313.76;;;18.26;84.29
72909;BME280;61051;62.624;17.950;2023-08-06T06:42:23;101312.98;;;18.17;84.09
72909;BME280;61051;62.624;17.950;2023-08-06T06:44:51;101316.96;;;18.34;83.86
72909;BME280;61051;62.624;17.950;2023-08-06T06:47:19;101320.98;;;18.24;83.01
72909;BME280;61051;62.624;17.950;2023-08-06T06:49:47;101328.79;;;18.05;83.10
72909;BME280;61051;62.624;17.950;2023-08-06T06:52:15;101331.87;;;17.96;83.39
72909;BME280;61051;62.624;17.950;2023-08-06T06:54:43;101335.93;;;17.87;84.08
72909;BME280;61051;62.624;17.950;2023-08-06T06:57:11;101333.90;;;17.72;84.93
72909;BME280;61051;62.624;17.950;2023-08-06T06:59:39;101332.55;;;17.77;86.53
72909;BME280;61051;62.624;17.950;2023-08-06T07:02:07;101329.84;;;17.65;86.49
72909;BME280;61051;62.624;17.950;2023-08-06T07:04:35;101326.46;;;17.58;86.70
72909;BME280;61051;62.624;17.950;2023-08-06T07:07:04;101326.39;;;17.73;86.18
72909;BME280;61051;62.624;17.950;2023-08-06T07:09:33;101331.88;;;18.09;85.27
72909;BME280;61051;62.624;17.950;2023-08-06T07:12:01;101335.78;;;18.72;82.76
72909;BME280;61051;62.624;17.950;2023-08-06T07:14:29;101338.70;;;18.87;80.85
72909;BME280;61051;62.624;17.950;2023-08-06T07:16:57;101334.96;;;19.01;78.60
72909;BME280;61051;62.624;17.950;2023-08-06T07:19:25;101336.95;;;19.11;78.46
72909;BME280;61051;62.624;17.950;2023-08-06T07:21:53;101340.93;;;19.02;78.50
72909;BME280;61051;62.624;17.950;2023-08-06T07:24:22;101347.21;;;18.99;76.65
72909;BME280;61051;62.624;17.950;2023-08-06T07:26:50;101348.11;;;19.02;75.41
72909;BME280;61051;62.624;17.950;2023-08-06T07:29:19;101343.75;;;19.05;76.47
72909;BME280;61051;62.624;17.950;2023-08-06T07:31:48;101337.24;;;19.38;75.63
72909;BME280;61051;62.624;17.950;2023-08-06T07:34:17;101329.57;;;19.86;73.24
72909;BME280;61051;62.624;17.950;2023-08-06T07:36:46;101328.28;;;19.81;72.37
72909;BME280;61051;62.624;17.950;2023-08-06T07:39:14;101324.17;;;19.84;69.86
72909;BME280;61051;62.624;17.950;2023-08-06T07:41:42;101315.59;;;19.89;68.03
72909;BME280;61051;62.624;17.950;2023-08-06T07:44:10;101318.36;;;20.19;67.31
72909;BME280;61051;62.624;17.950;2023-08-06T07:46:38;101320.47;;;20.32;66.05
72909;BME280;61051;62.624;17.950;2023-08-06T07:49:06;101335.21;;;20.52;65.28
72909;BME280;61051;62.624;17.950;2023-08-06T07:51:35;101339.68;;;20.52;64.72
72909;BME280;61051;62.624;17.950;2023-08-06T07:54:04;101340.00;;;20.76;64.41
72909;BME280;61051;62.624;17.950;2023-08-06T07:56:33;101336.25;;;20.82;62.70
72909;BME280;61051;62.624;17.950;2023-08-06T07:59:01;101338.46;;;20.86;62.14
72909;BME280;61051;62.624;17.950;2023-08-06T08:01:30;101334.18;;;20.81;62.10
72909;BME280;61051;62.624;17.950;2023-08-06T08:03:58;101332.84;;;20.84;64.56
72909;BME280;61051;62.624;17.950;2023-08-06T08:06:26;101334.80;;;20.73;62.86
72909;BME280;61051;62.624;17.950;2023-08-06T08:08:54;101334.26;;;20.94;62.77
72909;BME280;61051;62.624;17.950;2023-08-06T08:11:22;101332.74;;;21.09;62.89
72909;BME280;61051;62.624;17.950;2023-08-06T08:13:50;101329.19;;;21.12;58.85
72909;BME280;61051;62.624;17.950;2023-08-06T08:16:19;101333.24;;;21.11;58.30
72909;BME280;61051;62.624;17.950;2023-08-06T08:18:48;101331.98;;;21.14;57.65
72909;BME280;61051;62.624;17.950;2023-08-06T08:21:16;101328.55;;;21.17;57.87
72909;BME280;61051;62.624;17.950;2023-08-06T08:23:45;101330.26;;;21.34;57.93
72909;BME280;61051;62.624;17.950;2023-08-06T08:26:13;101338.86;;;21.37;58.58
72909;BME280;61051;62.624;17.950;2023-08-06T08:28:43;101334.20;;;21.67;56.41
72909;BME280;61051;62.624;17.950;2023-08-06T08:31:12;101340.98;;;21.80;56.59
72909;BME280;61051;62.624;17.950;2023-08-06T08:33:40;101348.91;;;21.45;54.84
72909;BME280;61051;62.624;17.950;2023-08-06T08:36:08;101340.71;;;21.34;57.60
72909;BME280;61051;62.624;17.950;2023-08-06T08:38:36;101340.88;;;21.24;59.69
72909;BME280;61051;62.624;17.950;2023-08-06T08:41:05;101341.26;;;21.42;56.97
72909;BME280;61051;62.624;17.950;2023-08-06T08:43:34;101338.85;;;21.36;57.85
72909;BME280;61051;62.624;17.950;2023-08-06T08:46:05;101342.41;;;21.10;60.77
72909;BME280;61051;62.624;17.950;2023-08-06T08:48:35;101343.10;;;21.19;58.85
72909;BME280;61051;62.624;17.950;2023-08-06T08:51:04;101339.41;;;21.29;58.22
72909;BME280;61051;62.624;17.950;2023-08-06T08:53:35;101332.52;;;21.04;59.20
72909;BME280;61051;62.624;17.950;2023-08-06T08:56:05;101335.19;;;20.86;60.31
72909;BME280;61051;62.624;17.950;2023-08-06T08:58:33;101332.99;;;21.03;60.39
72909;BME280;61051;62.624;17.950;2023-08-06T09:01:01;101333.68;;;21.23;58.60
72909;BME280;61051;62.624;17.950;2023-08-06T09:03:31;101338.39;;;20.96;59.51
72909;BME280;61051;62.624;17.950;2023-08-06T09:06:02;101341.83;;;20.73;59.17
72909;BME280;61051;62.624;17.950;2023-08-06T09:08:37;101340.37;;;20.56;59.24
72909;BME280;61051;62.624;17.950;2023-08-06T09:11:09;101337.76;;;20.35;59.88
72909;BME280;61051;62.624;17.950;2023-08-06T09:13:38;101339.98;;;20.12;62.29
72909;BME280;61051;62.624;17.950;2023-08-06T09:16:06;101333.97;;;20.01;64.58
72909;BME280;61051;62.624;17.950;2023-08-06T09:18:35;101336.09;;;20.08;64.03
72909;BME280;61051;62.624;17.950;2023-08-06T09:21:14;101336.50;;;19.92;63.48
72909;BME280;61051;62.624;17.950;2023-08-06T09:23:43;101339.16;;;19.90;63.14
72909;BME280;61051;62.624;17.950;2023-08-06T09:26:12;101345.54;;;19.93;65.34
72909;BME280;61051;62.624;17.950;2023-08-06T09:28:41;101339.41;;;19.73;63.80
72909;BME280;61051;62.624;17.950;2023-08-06T09:31:09;101341.66;;;19.52;65.00
72909;BME280;61051;62.624;17.950;2023-08-06T09:33:37;101341.71;;;19.64;66.45
72909;BME280;61051;62.624;17.950;2023-08-06T09:36:09;101342.50;;;19.83;63.93
72909;BME280;61051;62.624;17.950;2023-08-06T09:38:38;101340.08;;;20.07;65.87
72909;BME280;61051;62.624;17.950;2023-08-06T09:41:07;101337.23;;;20.18;63.84
72909;BME280;61051;62.624;17.950;2023-08-06T09:43:40;101331.85;;;20.11;63.74
72909;BME280;61051;62.624;17.950;2023-08-06T09:46:12;101330.40;;;20.01;64.51
72909;BME280;61051;62.624;17.950;2023-08-06T09:48:45;101329.18;;;20.00;65.31
72909;BME280;61051;62.624;17.950;2023-08-06T09:51:13;101331.89;;;20.23;63.94
72909;BME280;61051;62.624;17.950;2023-08-06T09:53:43;101330.11;;;20.47;64.04
72909;BME280;61051;62.624;17.950;2023-08-06T09:56:13;101334.70;;;20.36;62.83
72909;BME280;61051;62.624;17.950;2023-08-06T09:58:44;101335.39;;;20.18;63.07
72909;BME280;61051;62.624;17.950;2023-08-06T10:03:36;101343.72;;;19.83;65.11
72909;BME280;61051;62.624;17.950;2023-08-06T10:06:05;101343.95;;;19.79;65.88
72909;BME280;61051;62.624;17.950;2023-08-06T10:08:33;101341.36;;;19.92;65.13
72909;BME280;61051;62.624;17.950;2023-08-06T10:11:03;101344.96;;;19.97;64.61
72909;BME280;61051;62.624;17.950;2023-08-06T10:13:32;101350.77;;;19.78;65.53
72909;BME280;61051;62.624;17.950;2023-08-06T10:16:02;101351.33;;;19.78;66.15
72909;BME280;61051;62.624;17.950;2023-08-06T10:18:33;101348.75;;;20.04;64.97
72909;BME280;61051;62.624;17.950;2023-08-06T10:21:03;101349.07;;;20.11;65.77
72909;BME280;61051;62.624;17.950;2023-08-06T10:23:33;101349.41;;;20.16;64.65
72909;BME280;61051;62.624;17.950;2023-08-06T10:26:01;101355.24;;;19.87;65.55
72909;BME280;61051;62.624;17.950;2023-08-06T10:28:34;101356.31;;;19.94;65.86
72909;BME280;61051;62.624;17.950;2023-08-06T10:31:03;101355.03;;;20.47;64.94
72909;BME280;61051;62.624;17.950;2023-08-06T10:33:48;101354.35;;;20.95;63.50
72909;BME280;61051;62.624;17.950;2023-08-06T10:36:17;101357.21;;;20.91;61.81
72909;BME280;61051;62.624;17.950;2023-08-06T10:38:47;101355.60;;;20.91;59.55
72909;BME280;61051;62.624;17.950;2023-08-06T10:41:22;101351.25;;;21.12;59.32
72909;BME280;61051;62.624;17.950;2023-08-06T10:43:51;101352.74;;;21.41;59.68
72909;BME280;61051;62.624;17.950;2023-08-06T10:46:23;101357.95;;;21.68;58.27
72909;BME280;61051;62.624;17.950;2023-08-06T10:48:51;101352.59;;;22.33;57.56
72909;BME280;61051;62.624;17.950;2023-08-06T10:51:19;101354.22;;;22.38;55.03
72909;BME280;61051;62.624;17.950;2023-08-06T10:53:49;101356.58;;;22.99;55.24
72909;BME280;61051;62.624;17.950;2023-08-06T10:56:20;101356.93;;;22.58;54.46
72909;BME280;61051;62.624;17.950;2023-08-06T10:58:50;101355.58;;;22.10;55.24
72909;BME280;61051;62.624;17.950;2023-08-06T11:01:19;101353.05;;;22.06;56.61
72909;BME280;61051;62.624;17.950;2023-08-06T11:03:47;101349.83;;;21.83;57.30
72909;BME280;61051;62.624;17.950;2023-08-06T11:06:17;101349.08;;;21.74;58.55
72909;BME280;61051;62.624;17.950;2023-08-06T11:08:49;101347.17;;;22.04;56.98
72909;BME280;61051;62.624;17.950;2023-08-06T11:11:18;101345.74;;;23.10;54.99
72909;BME280;61051;62.624;17.950;2023-08-06T11:13:47;101344.15;;;22.36;55.26
72909;BME280;61051;62.624;17.950;2023-08-06T11:16:17;101346.23;;;22.34;57.15
72909;BME280;61051;62.624;17.950;2023-08-06T11:18:47;101342.72;;;23.71;54.29
72909;BME280;61051;62.624;17.950;2023-08-06T11:21:18;101339.33;;;24.72;47.21
72909;BME280;61051;62.624;17.950;2023-08-06T11:23:47;101339.37;;;25.10;46.54
72909;BME280;61051;62.624;17.950;2023-08-06T11:26:19;101341.26;;;26.00;44.41
72909;BME280;61051;62.624;17.950;2023-08-06T11:28:48;101338.37;;;25.35;46.86
72909;BME280;61051;62.624;17.950;2023-08-06T11:31:19;101334.94;;;25.27;46.05
72909;BME280;61051;62.624;17.950;2023-08-06T11:33:47;101335.91;;;24.43;49.33
72909;BME280;61051;62.624;17.950;2023-08-06T11:36:15;101343.41;;;23.24;50.61
72909;BME280;61051;62.624;17.950;2023-08-06T11:38:43;101337.96;;;24.29;50.42
72909;BME280;61051;62.624;17.950;2023-08-06T11:41:12;101339.04;;;24.16;48.40
72909;BME280;61051;62.624;17.950;2023-08-06T11:43:41;101338.86;;;23.12;52.72
72909;BME280;61051;62.624;17.950;2023-08-06T11:46:13;101333.15;;;22.40;55.53
72909;BME280;61051;62.624;17.950;2023-08-06T11:48:58;101335.54;;;21.78;56.75
72909;BME280;61051;62.624;17.950;2023-08-06T11:51:27;101331.54;;;21.63;58.95
72909;BME280;61051;62.624;17.950;2023-08-06T11:53:56;101330.60;;;21.38;58.67
72909;BME280;61051;62.624;17.950;2023-08-06T11:56:25;101333.89;;;21.11;58.91
72909;BME280;61051;62.624;17.950;2023-08-06T11:58:55;101335.60;;;20.84;60.16
72909;BME280;61051;62.624;17.950;2023-08-06T12:01:23;101336.17;;;20.75;61.17
72909;BME280;61051;62.624;17.950;2023-08-06T12:03:58;101331.82;;;20.44;60.87
72909;BME280;61051;62.624;17.950;2023-08-06T12:06:27;101335.64;;;20.13;62.66
72909;BME280;61051;62.624;17.950;2023-08-06T12:08:56;101336.63;;;19.90;64.21
72909;BME280;61051;62.624;17.950;2023-08-06T12:11:24;101340.79;;;20.19;63.85
72909;BME280;61051;62.624;17.950;2023-08-06T12:13:54;101338.14;;;20.10;64.15
72909;BME280;61051;62.624;17.950;2023-08-06T12:16:23;101338.51;;;20.23;63.99
72909;BME280;61051;62.624;17.950;2023-08-06T12:18:51;101335.47;;;20.18;63.25
72909;BME280;61051;62.624;17.950;2023-08-06T12:21:19;101330.07;;;19.92;64.12
72909;BME280;61051;62.624;17.950;2023-08-06T12:23:47;101328.31;;;19.95;64.58
72909;BME280;61051;62.624;17.950;2023-08-06T12:26:15;101325.91;;;20.09;64.79
72909;BME280;61051;62.624;17.950;2023-08-06T12:28:43;101324.40;;;20.35;62.93
72909;BME280;61051;62.624;17.950;2023-08-06T12:31:12;101318.67;;;20.92;60.62
72909;BME280;61051;62.624;17.950;2023-08-06T12:33:41;101316.39;;;21.26;59.06
72909;BME280;61051;62.624;17.950;2023-08-06T12:36:09;101314.76;;;21.37;59.07
72909;BME280;61051;62.624;17.950;2023-08-06T12:38:38;101317.67;;;21.54;58.06
72909;BME280;61051;62.624;17.950;2023-08-06T12:41:06;101315.57;;;21.41;57.78
72909;BME280;61051;62.624;17.950;2023-08-06T12:43:34;101314.67;;;21.23;58.76
72909;BME280;61051;62.624;17.950;2023-08-06T12:46:02;101315.15;;;20.68;61.81
72909;BME280;61051;62.624;17.950;2023-08-06T12:48:30;101312.39;;;20.64;60.78
72909;BME280;61051;62.624;17.950;2023-08-06T12:50:58;101302.42;;;21.97;58.40
72909;BME280;61051;62.624;17.950;2023-08-06T12:53:26;101298.95;;;22.00;57.72